Welcome to Des Moines Iowa Weather. I am an independent private personal weather station on the Northwest Side of Des Moines, Iowa. Just East of Windsor Heights and just West of Glendale . This site is also mobile friendly.

There are no active watches, warnings or advisories


Visit our other weather sites:

Historical Data

Weather Station Setup



Weather Underground History page Text

Daily Summary for May 20, 2017 Units:  English    Metric   Both
« Previous Day
Next Day »
Daily Weekly Monthly Yearly Custom
  High: Low: Average:
Temperature: 65.2 °F 47.0 °F 53.3 °F
Dew Point: 62.0 °F 46.0 °F 50.7 °F
Humidity: 97 % 75 % 91 %
Wind Speed: 9.0 mph 0.0 mph 1.6 mph
Wind Gust: 14.0 mph - -
Wind:- - SE
Pressure: 30.00 in 29.72 in -
Precipitation: 0.53 in    
Historical Graphs
 
 
Tabular Data for May 20, 2017
Time Temperature Dew Point Pressure Wind Wind Speed Wind Gust Humidity Rainfall Rate (Hourly)
00:02 48.4 °F 47.0 °F 29.99 in South 7.0 mph 14.0 mph 94 % 0.01 in
00:17 48.4 °F 47.0 °F 30.00 in NE 5.0 mph 10.0 mph 94 % 0.00 in
00:33 48.3 °F 47.0 °F 30.00 in NNW 1.0 mph 10.0 mph 94 % 0.01 in
00:47 48.2 °F 47.0 °F 29.99 in SE 1.0 mph 5.0 mph 94 % 0.07 in
01:02 48.0 °F 46.0 °F 29.98 in Calm   8.0 mph 94 % 0.11 in
01:18 47.8 °F 47.0 °F 29.98 in ENE 2.0 mph 9.0 mph 95 % 0.19 in
01:33 47.8 °F 47.0 °F 29.98 in NNE 6.0 mph 8.0 mph 95 % 0.20 in
01:48 47.7 °F 46.0 °F 29.96 in Calm   6.0 mph 95 % 0.19 in
02:03 47.6 °F 46.0 °F 29.95 in Calm   5.0 mph 95 % 0.18 in
02:18 47.5 °F 46.0 °F 29.91 in South 3.0 mph 10.0 mph 95 % 0.12 in
02:33 47.3 °F 46.0 °F 29.89 in Calm   11.0 mph 95 % 0.14 in
02:48 47.1 °F 46.0 °F 29.89 in East 3.0 mph 11.0 mph 95 % 0.10 in
03:03 47.1 °F 46.0 °F 29.87 in Calm   9.0 mph 96 % 0.13 in
03:18 47.0 °F 46.0 °F 29.90 in South 2.0 mph 9.0 mph 96 % 0.18 in
03:33 47.0 °F 46.0 °F 29.90 in NE 4.0 mph 8.0 mph 96 % 0.15 in
03:48 47.0 °F 46.0 °F 29.89 in ENE 1.0 mph 8.0 mph 96 % 0.13 in
04:03 47.0 °F 46.0 °F 29.86 in Calm   12.0 mph 96 % 0.07 in
04:18 47.1 °F 46.0 °F 29.87 in SSE 4.0 mph 8.0 mph 96 % 0.01 in
04:33 47.2 °F 46.0 °F 29.87 in NE 3.0 mph 9.0 mph 96 % 0.00 in
04:48 47.3 °F 46.0 °F 29.86 in Calm   7.0 mph 96 % 0.00 in
05:03 47.4 °F 46.0 °F 29.87 in SE 3.0 mph 6.0 mph 96 % 0.00 in
05:18 47.4 °F 46.0 °F 29.85 in NE 1.0 mph 6.0 mph 96 % 0.00 in
05:33 47.5 °F 47.0 °F 29.88 in Calm   10.0 mph 96 % 0.00 in
05:48 47.6 °F 47.0 °F 29.86 in SSE 4.0 mph 9.0 mph 96 % 0.00 in
06:03 47.6 °F 47.0 °F 29.86 in NNE 2.0 mph 9.0 mph 97 % 0.00 in
06:18 47.7 °F 47.0 °F 29.86 in North 3.0 mph 6.0 mph 97 % 0.00 in
06:33 47.7 °F 47.0 °F 29.85 in SSW 9.0 mph 11.0 mph 97 % 0.00 in
06:48 47.6 °F 47.0 °F 29.86 in South 4.0 mph 9.0 mph 97 % 0.00 in
07:03 47.7 °F 47.0 °F 29.87 in NNE 3.0 mph 6.0 mph 97 % 0.00 in
07:18 48.0 °F 47.0 °F 29.88 in SSW 3.0 mph 6.0 mph 97 % 0.00 in
07:33 48.2 °F 47.0 °F 29.86 in Calm   4.0 mph 97 % 0.01 in
07:48 48.3 °F 48.0 °F 29.86 in ENE 4.0 mph 7.0 mph 97 % 0.01 in
08:03 48.5 °F 48.0 °F 29.84 in East 3.0 mph 6.0 mph 97 % 0.01 in
08:18 48.5 °F 48.0 °F 29.84 in ENE 1.0 mph 7.0 mph 97 % 0.02 in
08:33 48.5 °F 48.0 °F 29.83 in Calm   4.0 mph 97 % 0.01 in
08:48 48.7 °F 48.0 °F 29.83 in ENE 1.0 mph 6.0 mph 97 % 0.01 in
09:04 49.0 °F 48.0 °F 29.83 in NNE 2.0 mph 7.0 mph 97 % 0.01 in
09:18 49.3 °F 49.0 °F 29.83 in SE 2.0 mph 9.0 mph 97 % 0.00 in
09:34 49.4 °F 49.0 °F 29.82 in SSW 7.0 mph 10.0 mph 97 % 0.00 in
09:49 49.6 °F 49.0 °F 29.82 in South 4.0 mph 8.0 mph 97 % 0.00 in
10:04 49.9 °F 49.0 °F 29.82 in North 5.0 mph 9.0 mph 97 % 0.00 in
10:19 50.3 °F 50.0 °F 29.81 in Calm   9.0 mph 97 % 0.00 in
10:34 51.0 °F 50.0 °F 29.81 in SSE 2.0 mph 7.0 mph 97 % 0.00 in
10:49 51.5 °F 51.0 °F 29.81 in SSE 4.0 mph 6.0 mph 97 % 0.00 in
11:04 51.6 °F 51.0 °F 29.81 in Calm   8.0 mph 97 % 0.00 in
11:19 51.9 °F 51.0 °F 29.80 in ENE 2.0 mph 8.0 mph 97 % 0.00 in
11:34 52.5 °F 52.0 °F 29.81 in SSW 3.0 mph 7.0 mph 97 % 0.00 in
11:49 53.0 °F 52.0 °F 29.81 in NNE 1.0 mph 6.0 mph 97 % 0.00 in
12:04 53.3 °F 53.0 °F 29.81 in Calm   7.0 mph 97 % 0.00 in
12:19 54.1 °F 53.0 °F 29.80 in South 3.0 mph 7.0 mph 97 % 0.00 in
12:34 54.7 °F 54.0 °F 29.78 in SSE 2.0 mph 10.0 mph 97 % 0.00 in
12:49 55.1 °F 54.0 °F 29.78 in Calm   8.0 mph 97 % 0.00 in
13:04 55.7 °F 55.0 °F 29.78 in SSE 2.0 mph 8.0 mph 97 % 0.00 in
13:19 55.8 °F 55.0 °F 29.77 in Calm   4.0 mph 97 % 0.00 in
13:49 56.8 °F 56.0 °F 29.77 in Calm   5.0 mph 97 % 0.00 in
14:04 57.6 °F 57.0 °F 29.77 in SSW 4.0 mph 5.0 mph 97 % 0.00 in
14:21 58.3 °F 58.0 °F 29.75 in Calm   3.0 mph 97 % 0.00 in
14:41 59.8 °F 59.0 °F 29.74 in Calm   8.0 mph 97 % 0.00 in
14:50 60.6 °F 60.0 °F 29.74 in Calm   8.0 mph 97 % 0.00 in
15:05 62.1 °F 61.0 °F 29.74 in South 1.0 mph 8.0 mph 96 % 0.00 in
15:20 63.7 °F 62.0 °F 29.73 in Calm   4.0 mph 93 % 0.00 in
15:35 64.2 °F 62.0 °F 29.72 in ENE 3.0 mph 5.0 mph 92 % 0.01 in
15:50 64.2 °F 62.0 °F 29.75 in West 2.0 mph 4.0 mph 91 % 0.01 in
16:05 65.2 °F 62.0 °F 29.75 in Calm   4.0 mph 88 % 0.01 in
16:20 64.6 °F 60.0 °F 29.76 in East 1.0 mph 5.0 mph 84 % 0.01 in
16:35 64.5 °F 59.0 °F 29.76 in Calm   8.0 mph 81 % 0.00 in
16:50 65.0 °F 58.0 °F 29.76 in NW 2.0 mph 7.0 mph 78 % 0.00 in
17:05 65.1 °F 57.0 °F 29.77 in South 1.0 mph 7.0 mph 76 % 0.00 in
17:20 63.6 °F 56.0 °F 29.77 in ENE 5.0 mph 11.0 mph 75 % 0.00 in
17:35 63.0 °F 55.0 °F 29.77 in Calm   6.0 mph 75 % 0.00 in
17:51 62.4 °F 55.0 °F 29.77 in NNE 1.0 mph 9.0 mph 76 % 0.00 in
18:05 61.7 °F 54.0 °F 29.78 in Calm   12.0 mph 76 % 0.00 in
18:20 61.0 °F 54.0 °F 29.78 in SE 1.0 mph 6.0 mph 77 % 0.00 in
18:35 60.6 °F 54.0 °F 29.79 in Calm   9.0 mph 78 % 0.00 in
18:50 60.1 °F 54.0 °F 29.80 in Calm   5.0 mph 79 % 0.00 in
19:05 59.6 °F 53.0 °F 29.80 in Calm   5.0 mph 78 % 0.00 in
19:20 59.2 °F 53.0 °F 29.80 in Calm   2.0 mph 79 % 0.00 in
19:35 58.9 °F 52.0 °F 29.80 in Calm   3.0 mph 79 % 0.00 in
19:50 58.3 °F 52.0 °F 29.80 in Calm   4.0 mph 79 % 0.00 in
20:05 57.7 °F 51.0 °F 29.81 in Calm   4.0 mph 78 % 0.00 in
20:22 57.2 °F 51.0 °F 29.82 in South 1.0 mph 4.0 mph 79 % 0.00 in
20:35 56.8 °F 50.0 °F 29.82 in NE 1.0 mph 3.0 mph 79 % 0.00 in
20:50 56.3 °F 50.0 °F 29.83 in East 1.0 mph 4.0 mph 79 % 0.00 in
21:06 55.7 °F 49.0 °F 29.84 in SW 1.0 mph 5.0 mph 79 % 0.00 in
21:21 55.1 °F 49.0 °F 29.84 in Calm   2.0 mph 81 % 0.00 in
21:36 54.7 °F 49.0 °F 29.84 in Calm   4.0 mph 82 % 0.00 in
21:51 54.3 °F 49.0 °F 29.84 in Calm   3.0 mph 83 % 0.00 in
22:06 54.0 °F 49.0 °F 29.84 in Calm   6.0 mph 83 % 0.00 in
22:21 53.5 °F 49.0 °F 29.84 in NNW 1.0 mph 4.0 mph 83 % 0.00 in
22:36 53.0 °F 48.0 °F 29.84 in Calm   3.0 mph 84 % 0.00 in
22:50 52.7 °F 48.0 °F 29.85 in East 1.0 mph 2.0 mph 85 % 0.00 in
23:05 52.5 °F 49.0 °F 29.85 in SSE 1.0 mph 6.0 mph 86 % 0.00 in
23:21 52.3 °F 48.0 °F 29.85 in Calm   6.0 mph 86 % 0.00 in
23:35 51.9 °F 48.0 °F 29.84 in Calm   5.0 mph 86 % 0.00 in
23:51 51.6 °F 48.0 °F 29.85 in ENE 1.0 mph 5.0 mph 86 % 0.00 in
Des Moines Weather and Climate
Compliments of Weather Underground - 3 mb

Script developed by  Jim McMurry - jmcmurry@mwt.net Adapted for the template by  Wim van der Kuil - Leuven-Template.eu

You find our weather info also at:

Weather Underground

Equipment we use:

Weather-station
Davis VP2 Plus

Weather-program
Davis Weatherlink.Com

Weather-server
iMac (Retina 4K, 21.5-inch, Late 2015)

Provider
Hostmonster.com

Davis VP2 Plus

Davis Weatherlink.Com

iMac (Retina 4K, 21.5-inch, Late 2015)

Hostmonster.com